sensor_id;sensor_type;location;lat;lon;timestamp;P1;durP1;ratioP1;P2;durP2;ratioP2
18188;SDS011;9219;50.396;8.546;2022-10-18T00:01:52;12.27;;;4.10;;
18188;SDS011;9219;50.396;8.546;2022-10-18T00:09:40;11.90;;;4.03;;
18188;SDS011;9219;50.396;8.546;2022-10-18T00:12:08;13.47;;;4.23;;
18188;SDS011;9219;50.396;8.546;2022-10-18T00:14:35;10.70;;;4.43;;
18188;SDS011;9219;50.396;8.546;2022-10-18T00:17:03;7.23;;;3.93;;
18188;SDS011;9219;50.396;8.546;2022-10-18T00:19:30;16.40;;;5.50;;
18188;SDS011;9219;50.396;8.546;2022-10-18T00:21:58;9.13;;;3.90;;
18188;SDS011;9219;50.396;8.546;2022-10-18T00:24:25;13.43;;;4.80;;
18188;SDS011;9219;50.396;8.546;2022-10-18T00:26:53;7.93;;;3.93;;
18188;SDS011;9219;50.396;8.546;2022-10-18T00:29:40;11.67;;;3.33;;
18188;SDS011;9219;50.396;8.546;2022-10-18T00:32:08;6.53;;;3.50;;
18188;SDS011;9219;50.396;8.546;2022-10-18T00:34:36;10.63;;;4.17;;
18188;SDS011;9219;50.396;8.546;2022-10-18T00:37:04;10.03;;;4.17;;
18188;SDS011;9219;50.396;8.546;2022-10-18T00:39:32;11.07;;;3.53;;
18188;SDS011;9219;50.396;8.546;2022-10-18T00:41:59;6.63;;;3.80;;
18188;SDS011;9219;50.396;8.546;2022-10-18T00:52:44;13.67;;;4.43;;
18188;SDS011;9219;50.396;8.546;2022-10-18T00:55:14;15.20;;;4.50;;
18188;SDS011;9219;50.396;8.546;2022-10-18T00:57:43;6.73;;;4.50;;
18188;SDS011;9219;50.396;8.546;2022-10-18T01:00:12;12.53;;;4.90;;
18188;SDS011;9219;50.396;8.546;2022-10-18T01:02:41;15.10;;;4.73;;
18188;SDS011;9219;50.396;8.546;2022-10-18T01:05:11;15.17;;;4.80;;
18188;SDS011;9219;50.396;8.546;2022-10-18T01:16:26;15.57;;;4.27;;
18188;SDS011;9219;50.396;8.546;2022-10-18T01:18:59;8.93;;;3.90;;
18188;SDS011;9219;50.396;8.546;2022-10-18T01:21:34;10.13;;;4.23;;
18188;SDS011;9219;50.396;8.546;2022-10-18T01:24:27;12.53;;;5.10;;
18188;SDS011;9219;50.396;8.546;2022-10-18T01:30:18;14.87;;;4.70;;
18188;SDS011;9219;50.396;8.546;2022-10-18T01:39:40;10.93;;;4.10;;
18188;SDS011;9219;50.396;8.546;2022-10-18T01:42:11;8.27;;;4.40;;
18188;SDS011;9219;50.396;8.546;2022-10-18T01:44:42;6.87;;;4.30;;
18188;SDS011;9219;50.396;8.546;2022-10-18T01:47:15;7.47;;;4.10;;
18188;SDS011;9219;50.396;8.546;2022-10-18T01:49:56;8.30;;;4.13;;
18188;SDS011;9219;50.396;8.546;2022-10-18T01:52:25;7.47;;;4.57;;
18188;SDS011;9219;50.396;8.546;2022-10-18T01:54:54;8.47;;;4.10;;
18188;SDS011;9219;50.396;8.546;2022-10-18T02:01:45;8.00;;;5.03;;
18188;SDS011;9219;50.396;8.546;2022-10-18T02:04:21;18.30;;;5.40;;
18188;SDS011;9219;50.396;8.546;2022-10-18T02:07:01;7.90;;;5.13;;
18188;SDS011;9219;50.396;8.546;2022-10-18T02:09:34;8.93;;;4.70;;
18188;SDS011;9219;50.396;8.546;2022-10-18T02:12:07;7.67;;;4.63;;
18188;SDS011;9219;50.396;8.546;2022-10-18T02:14:37;15.27;;;5.43;;
18188;SDS011;9219;50.396;8.546;2022-10-18T02:17:08;14.00;;;6.13;;
18188;SDS011;9219;50.396;8.546;2022-10-18T02:22:41;7.10;;;4.50;;
18188;SDS011;9219;50.396;8.546;2022-10-18T02:25:12;11.63;;;6.77;;
18188;SDS011;9219;50.396;8.546;2022-10-18T02:27:44;20.33;;;6.90;;
18188;SDS011;9219;50.396;8.546;2022-10-18T02:30:26;8.07;;;5.90;;
18188;SDS011;9219;50.396;8.546;2022-10-18T02:33:00;7.57;;;5.17;;
18188;SDS011;9219;50.396;8.546;2022-10-18T02:35:34;15.33;;;6.00;;
18188;SDS011;9219;50.396;8.546;2022-10-18T02:38:06;17.17;;;6.07;;
18188;SDS011;9219;50.396;8.546;2022-10-18T02:44:53;26.40;;;6.43;;
18188;SDS011;9219;50.396;8.546;2022-10-18T02:47:20;183.10;;;14.97;;
18188;SDS011;9219;50.396;8.546;2022-10-18T02:49:48;88.07;;;9.30;;
18188;SDS011;9219;50.396;8.546;2022-10-18T02:52:15;34.23;;;6.57;;
18188;SDS011;9219;50.396;8.546;2022-10-18T02:54:43;39.90;;;6.37;;
18188;SDS011;9219;50.396;8.546;2022-10-18T02:57:10;44.67;;;6.93;;
18188;SDS011;9219;50.396;8.546;2022-10-18T02:59:38;10.47;;;5.67;;
18188;SDS011;9219;50.396;8.546;2022-10-18T03:09:32;4.53;;;2.23;;
18188;SDS011;9219;50.396;8.546;2022-10-18T03:12:00;4.27;;;3.07;;
18188;SDS011;9219;50.396;8.546;2022-10-18T03:14:29;42.87;;;6.67;;
18188;SDS011;9219;50.396;8.546;2022-10-18T03:16:57;13.33;;;4.73;;
18188;SDS011;9219;50.396;8.546;2022-10-18T03:19:29;4.00;;;3.60;;
18188;SDS011;9219;50.396;8.546;2022-10-18T03:22:01;24.50;;;4.67;;
18188;SDS011;9219;50.396;8.546;2022-10-18T03:24:29;167.80;;;12.57;;
18188;SDS011;9219;50.396;8.546;2022-10-18T03:32:13;2.90;;;2.37;;
18188;SDS011;9219;50.396;8.546;2022-10-18T03:34:41;4.63;;;2.23;;
18188;SDS011;9219;50.396;8.546;2022-10-18T03:37:08;2.40;;;1.77;;
18188;SDS011;9219;50.396;8.546;2022-10-18T03:39:35;3.60;;;1.87;;
18188;SDS011;9219;50.396;8.546;2022-10-18T03:42:03;2.37;;;2.03;;
18188;SDS011;9219;50.396;8.546;2022-10-18T03:44:30;1.83;;;1.43;;
18188;SDS011;9219;50.396;8.546;2022-10-18T03:46:57;2.47;;;2.17;;
18188;SDS011;9219;50.396;8.546;2022-10-18T03:53:17;2.63;;;1.67;;
18188;SDS011;9219;50.396;8.546;2022-10-18T03:55:49;4.37;;;2.37;;
18188;SDS011;9219;50.396;8.546;2022-10-18T03:58:17;4.90;;;2.70;;
18188;SDS011;9219;50.396;8.546;2022-10-18T04:00:47;5.83;;;2.33;;
18188;SDS011;9219;50.396;8.546;2022-10-18T04:03:16;9.33;;;2.47;;
18188;SDS011;9219;50.396;8.546;2022-10-18T04:05:44;20.70;;;2.53;;
18188;SDS011;9219;50.396;8.546;2022-10-18T04:08:11;6.30;;;1.80;;
18188;SDS011;9219;50.396;8.546;2022-10-18T04:10:42;44.70;;;3.37;;
18188;SDS011;9219;50.396;8.546;2022-10-18T04:16:48;2.23;;;1.80;;
18188;SDS011;9219;50.396;8.546;2022-10-18T04:19:15;1.80;;;1.43;;
18188;SDS011;9219;50.396;8.546;2022-10-18T04:21:43;2.27;;;1.40;;
18188;SDS011;9219;50.396;8.546;2022-10-18T04:24:11;2.60;;;2.40;;
18188;SDS011;9219;50.396;8.546;2022-10-18T04:26:39;2.27;;;1.90;;
18188;SDS011;9219;50.396;8.546;2022-10-18T04:29:07;2.03;;;1.53;;
18188;SDS011;9219;50.396;8.546;2022-10-18T04:31:35;2.10;;;1.83;;
18188;SDS011;9219;50.396;8.546;2022-10-18T04:34:03;2.70;;;1.87;;
18188;SDS011;9219;50.396;8.546;2022-10-18T04:41:38;3.17;;;2.13;;
18188;SDS011;9219;50.396;8.546;2022-10-18T04:44:06;3.03;;;2.33;;
18188;SDS011;9219;50.396;8.546;2022-10-18T04:46:33;3.23;;;2.30;;
18188;SDS011;9219;50.396;8.546;2022-10-18T04:49:01;3.97;;;1.90;;
18188;SDS011;9219;50.396;8.546;2022-10-18T04:51:29;1.97;;;1.70;;
18188;SDS011;9219;50.396;8.546;2022-10-18T04:53:56;1.83;;;1.70;;
18188;SDS011;9219;50.396;8.546;2022-10-18T04:56:23;4.03;;;1.97;;
18188;SDS011;9219;50.396;8.546;2022-10-18T05:01:30;2.93;;;1.70;;
18188;SDS011;9219;50.396;8.546;2022-10-18T05:06:53;3.80;;;1.67;;
18188;SDS011;9219;50.396;8.546;2022-10-18T05:09:20;3.77;;;1.47;;
18188;SDS011;9219;50.396;8.546;2022-10-18T05:11:49;1.67;;;0.70;;
18188;SDS011;9219;50.396;8.546;2022-10-18T05:14:17;2.13;;;0.70;;
18188;SDS011;9219;50.396;8.546;2022-10-18T05:16:45;0.67;;;0.40;;
18188;SDS011;9219;50.396;8.546;2022-10-18T05:19:13;5.50;;;0.80;;
18188;SDS011;9219;50.396;8.546;2022-10-18T05:26:46;23.23;;;2.40;;
18188;SDS011;9219;50.396;8.546;2022-10-18T05:29:14;1.30;;;1.03;;
18188;SDS011;9219;50.396;8.546;2022-10-18T05:31:41;25.83;;;1.77;;
18188;SDS011;9219;50.396;8.546;2022-10-18T05:34:09;0.70;;;0.70;;
18188;SDS011;9219;50.396;8.546;2022-10-18T05:36:36;6.23;;;1.23;;
18188;SDS011;9219;50.396;8.546;2022-10-18T05:39:04;1.20;;;1.10;;
18188;SDS011;9219;50.396;8.546;2022-10-18T05:41:32;1.40;;;1.10;;
18188;SDS011;9219;50.396;8.546;2022-10-18T05:46:59;14.37;;;1.33;;
18188;SDS011;9219;50.396;8.546;2022-10-18T05:49:27;2.33;;;0.90;;
18188;SDS011;9219;50.396;8.546;2022-10-18T05:51:54;14.47;;;1.70;;
18188;SDS011;9219;50.396;8.546;2022-10-18T05:54:21;0.70;;;0.70;;
18188;SDS011;9219;50.396;8.546;2022-10-18T05:56:49;1.17;;;1.07;;
18188;SDS011;9219;50.396;8.546;2022-10-18T05:59:16;0.73;;;0.73;;
18188;SDS011;9219;50.396;8.546;2022-10-18T06:01:43;1.00;;;0.90;;
18188;SDS011;9219;50.396;8.546;2022-10-18T06:09:15;0.70;;;0.70;;
18188;SDS011;9219;50.396;8.546;2022-10-18T06:11:42;0.97;;;0.73;;
18188;SDS011;9219;50.396;8.546;2022-10-18T06:14:10;2.83;;;0.97;;
18188;SDS011;9219;50.396;8.546;2022-10-18T06:16:38;1.33;;;1.03;;
18188;SDS011;9219;50.396;8.546;2022-10-18T06:19:05;0.80;;;0.80;;
18188;SDS011;9219;50.396;8.546;2022-10-18T06:21:32;1.43;;;1.33;;
18188;SDS011;9219;50.396;8.546;2022-10-18T06:24:00;1.10;;;1.00;;
18188;SDS011;9219;50.396;8.546;2022-10-18T06:26:29;0.87;;;0.87;;
18188;SDS011;9219;50.396;8.546;2022-10-18T06:31:37;1.20;;;0.90;;
18188;SDS011;9219;50.396;8.546;2022-10-18T06:34:04;1.10;;;1.00;;
18188;SDS011;9219;50.396;8.546;2022-10-18T06:36:31;0.80;;;0.80;;
18188;SDS011;9219;50.396;8.546;2022-10-18T06:38:59;1.53;;;1.40;;
18188;SDS011;9219;50.396;8.546;2022-10-18T06:41:27;0.90;;;0.90;;
18188;SDS011;9219;50.396;8.546;2022-10-18T06:43:54;4.27;;;1.40;;
18188;SDS011;9219;50.396;8.546;2022-10-18T06:46:23;1.10;;;1.00;;
18188;SDS011;9219;50.396;8.546;2022-10-18T06:48:52;1.20;;;1.00;;
18188;SDS011;9219;50.396;8.546;2022-10-18T06:54:35;14.93;;;1.37;;
18188;SDS011;9219;50.396;8.546;2022-10-18T06:57:03;1.43;;;0.80;;
18188;SDS011;9219;50.396;8.546;2022-10-18T06:59:30;1.10;;;1.00;;
18188;SDS011;9219;50.396;8.546;2022-10-18T07:01:58;1.30;;;1.00;;
18188;SDS011;9219;50.396;8.546;2022-10-18T07:04:26;46.77;;;2.40;;
18188;SDS011;9219;50.396;8.546;2022-10-18T07:06:56;4.00;;;1.27;;
18188;SDS011;9219;50.396;8.546;2022-10-18T07:12:07;10.50;;;1.60;;
18188;SDS011;9219;50.396;8.546;2022-10-18T07:14:36;1.67;;;1.47;;
18188;SDS011;9219;50.396;8.546;2022-10-18T07:17:04;1.20;;;1.10;;
18188;SDS011;9219;50.396;8.546;2022-10-18T07:19:36;1.47;;;1.13;;
18188;SDS011;9219;50.396;8.546;2022-10-18T07:22:03;2.87;;;0.83;;
18188;SDS011;9219;50.396;8.546;2022-10-18T07:24:31;9.50;;;1.57;;
18188;SDS011;9219;50.396;8.546;2022-10-18T07:26:58;9.97;;;1.40;;
18188;SDS011;9219;50.396;8.546;2022-10-18T07:29:27;2.03;;;1.30;;
18188;SDS011;9219;50.396;8.546;2022-10-18T07:34:41;179.47;;;8.83;;
18188;SDS011;9219;50.396;8.546;2022-10-18T07:37:09;203.73;;;9.57;;
18188;SDS011;9219;50.396;8.546;2022-10-18T07:39:38;336.73;;;16.90;;
18188;SDS011;9219;50.396;8.546;2022-10-18T07:42:05;79.80;;;4.50;;
18188;SDS011;9219;50.396;8.546;2022-10-18T07:44:33;261.47;;;10.57;;
18188;SDS011;9219;50.396;8.546;2022-10-18T07:47:01;131.37;;;7.93;;
18188;SDS011;9219;50.396;8.546;2022-10-18T07:49:29;121.23;;;7.13;;
18188;SDS011;9219;50.396;8.546;2022-10-18T07:56:40;18.00;;;2.13;;
18188;SDS011;9219;50.396;8.546;2022-10-18T07:59:11;181.50;;;9.47;;
18188;SDS011;9219;50.396;8.546;2022-10-18T08:01:41;76.47;;;4.47;;
18188;SDS011;9219;50.396;8.546;2022-10-18T08:04:10;125.77;;;6.83;;
18188;SDS011;9219;50.396;8.546;2022-10-18T08:06:41;336.53;;;15.40;;
18188;SDS011;9219;50.396;8.546;2022-10-18T08:09:09;578.27;;;30.20;;
18188;SDS011;9219;50.396;8.546;2022-10-18T08:11:37;284.37;;;12.30;;
18188;SDS011;9219;50.396;8.546;2022-10-18T08:14:07;446.27;;;18.80;;
18188;SDS011;9219;50.396;8.546;2022-10-18T08:24:54;233.00;;;12.47;;
18188;SDS011;9219;50.396;8.546;2022-10-18T08:27:23;329.87;;;13.87;;
18188;SDS011;9219;50.396;8.546;2022-10-18T08:29:51;264.10;;;13.43;;
18188;SDS011;9219;50.396;8.546;2022-10-18T08:32:19;195.23;;;9.67;;
18188;SDS011;9219;50.396;8.546;2022-10-18T08:34:46;68.10;;;4.70;;
18188;SDS011;9219;50.396;8.546;2022-10-18T08:37:14;93.80;;;5.97;;
18188;SDS011;9219;50.396;8.546;2022-10-18T08:44:16;1.50;;;1.40;;
18188;SDS011;9219;50.396;8.546;2022-10-18T08:46:47;5.17;;;1.40;;
18188;SDS011;9219;50.396;8.546;2022-10-18T08:49:19;4.53;;;1.30;;
18188;SDS011;9219;50.396;8.546;2022-10-18T08:51:54;1.47;;;0.80;;
18188;SDS011;9219;50.396;8.546;2022-10-18T08:54:25;2.80;;;1.00;;
18188;SDS011;9219;50.396;8.546;2022-10-18T08:56:59;1.10;;;0.70;;
18188;SDS011;9219;50.396;8.546;2022-10-18T09:02:06;0.63;;;0.63;;
18188;SDS011;9219;50.396;8.546;2022-10-18T09:07:40;0.80;;;0.70;;
18188;SDS011;9219;50.396;8.546;2022-10-18T09:10:28;0.90;;;0.90;;
18188;SDS011;9219;50.396;8.546;2022-10-18T09:13:20;3.53;;;0.70;;
18188;SDS011;9219;50.396;8.546;2022-10-18T09:16:02;1.13;;;0.93;;
18188;SDS011;9219;50.396;8.546;2022-10-18T09:18:36;0.60;;;0.60;;
18188;SDS011;9219;50.396;8.546;2022-10-18T09:21:18;0.80;;;0.80;;
18188;SDS011;9219;50.396;8.546;2022-10-18T09:23:53;1.40;;;0.60;;
18188;SDS011;9219;50.396;8.546;2022-10-18T09:29:21;1.33;;;0.70;;
18188;SDS011;9219;50.396;8.546;2022-10-18T09:35:18;2.23;;;0.70;;
18188;SDS011;9219;50.396;8.546;2022-10-18T09:38:01;2.83;;;0.80;;
18188;SDS011;9219;50.396;8.546;2022-10-18T09:44:04;0.60;;;0.57;;
18188;SDS011;9219;50.396;8.546;2022-10-18T10:09:39;2.70;;;0.63;;
18188;SDS011;9219;50.396;8.546;2022-10-18T10:12:22;3.10;;;0.83;;
18188;SDS011;9219;50.396;8.546;2022-10-18T10:14:54;0.70;;;0.60;;
18188;SDS011;9219;50.396;8.546;2022-10-18T10:17:35;1.50;;;0.67;;
18188;SDS011;9219;50.396;8.546;2022-10-18T10:20:03;0.67;;;0.63;;
18188;SDS011;9219;50.396;8.546;2022-10-18T10:22:43;2.13;;;0.90;;
18188;SDS011;9219;50.396;8.546;2022-10-18T10:30:35;12.97;;;1.87;;
18188;SDS011;9219;50.396;8.546;2022-10-18T10:33:14;2.17;;;1.40;;
18188;SDS011;9219;50.396;8.546;2022-10-18T10:36:01;1.40;;;1.30;;
18188;SDS011;9219;50.396;8.546;2022-10-18T10:38:33;9.70;;;1.40;;
18188;SDS011;9219;50.396;8.546;2022-10-18T10:41:13;3.00;;;1.40;;
18188;SDS011;9219;50.396;8.546;2022-10-18T10:43:45;8.13;;;1.43;;
18188;SDS011;9219;50.396;8.546;2022-10-18T10:51:56;5.00;;;1.77;;
18188;SDS011;9219;50.396;8.546;2022-10-18T10:54:42;3.90;;;1.60;;
18188;SDS011;9219;50.396;8.546;2022-10-18T10:57:18;2.27;;;2.07;;
18188;SDS011;9219;50.396;8.546;2022-10-18T10:59:50;7.70;;;2.77;;
18188;SDS011;9219;50.396;8.546;2022-10-18T11:02:34;5.07;;;2.97;;
18188;SDS011;9219;50.396;8.546;2022-10-18T11:05:45;5.93;;;3.57;;
18188;SDS011;9219;50.396;8.546;2022-10-18T11:08:35;3.73;;;2.07;;
18188;SDS011;9219;50.396;8.546;2022-10-18T11:29:29;2.70;;;2.30;;
18188;SDS011;9219;50.396;8.546;2022-10-18T11:32:10;3.23;;;2.27;;
18188;SDS011;9219;50.396;8.546;2022-10-18T11:38:14;2.00;;;1.70;;
18188;SDS011;9219;50.396;8.546;2022-10-18T11:41:01;3.53;;;2.40;;
18188;SDS011;9219;50.396;8.546;2022-10-18T11:43:53;2.17;;;1.70;;
18188;SDS011;9219;50.396;8.546;2022-10-18T11:50:14;3.70;;;1.80;;
18188;SDS011;9219;50.396;8.546;2022-10-18T11:55:52;3.60;;;1.70;;
18188;SDS011;9219;50.396;8.546;2022-10-18T11:58:51;2.00;;;1.60;;
18188;SDS011;9219;50.396;8.546;2022-10-18T12:01:32;5.00;;;1.63;;
18188;SDS011;9219;50.396;8.546;2022-10-18T12:04:03;2.37;;;2.10;;
18188;SDS011;9219;50.396;8.546;2022-10-18T12:06:38;2.40;;;2.07;;
18188;SDS011;9219;50.396;8.546;2022-10-18T12:09:14;7.40;;;1.60;;
18188;SDS011;9219;50.396;8.546;2022-10-18T12:11:51;2.80;;;1.87;;
18188;SDS011;9219;50.396;8.546;2022-10-18T12:17:33;1.20;;;1.07;;
18188;SDS011;9219;50.396;8.546;2022-10-18T12:20:14;2.47;;;1.20;;
18188;SDS011;9219;50.396;8.546;2022-10-18T12:22:47;5.77;;;2.00;;
18188;SDS011;9219;50.396;8.546;2022-10-18T12:25:18;4.03;;;1.80;;
18188;SDS011;9219;50.396;8.546;2022-10-18T12:27:47;4.80;;;1.80;;
18188;SDS011;9219;50.396;8.546;2022-10-18T12:30:23;1.80;;;1.50;;
18188;SDS011;9219;50.396;8.546;2022-10-18T12:33:01;3.37;;;1.60;;
18188;SDS011;9219;50.396;8.546;2022-10-18T12:51:57;1.03;;;0.87;;
18188;SDS011;9219;50.396;8.546;2022-10-18T12:54:26;2.20;;;2.00;;
18188;SDS011;9219;50.396;8.546;2022-10-18T12:56:57;1.47;;;1.00;;
18188;SDS011;9219;50.396;8.546;2022-10-18T13:02:26;1.43;;;0.90;;
18188;SDS011;9219;50.396;8.546;2022-10-18T13:04:56;2.57;;;1.87;;
18188;SDS011;9219;50.396;8.546;2022-10-18T13:16:01;3.47;;;1.17;;
18188;SDS011;9219;50.396;8.546;2022-10-18T13:19:25;5.73;;;2.20;;
18188;SDS011;9219;50.396;8.546;2022-10-18T13:25:19;4.50;;;1.30;;
18188;SDS011;9219;50.396;8.546;2022-10-18T13:34:49;2.17;;;0.90;;
18188;SDS011;9219;50.396;8.546;2022-10-18T13:41:22;5.90;;;1.23;;
18188;SDS011;9219;50.396;8.546;2022-10-18T13:47:19;1.87;;;1.40;;
18188;SDS011;9219;50.396;8.546;2022-10-18T14:06:33;4.27;;;1.10;;
18188;SDS011;9219;50.396;8.546;2022-10-18T14:09:10;1.30;;;1.20;;
18188;SDS011;9219;50.396;8.546;2022-10-18T14:12:07;6.10;;;1.37;;
18188;SDS011;9219;50.396;8.546;2022-10-18T14:14:50;1.47;;;1.23;;
18188;SDS011;9219;50.396;8.546;2022-10-18T14:17:26;1.30;;;1.20;;
18188;SDS011;9219;50.396;8.546;2022-10-18T14:22:51;2.93;;;1.63;;
18188;SDS011;9219;50.396;8.546;2022-10-18T14:25:25;1.57;;;1.10;;
18188;SDS011;9219;50.396;8.546;2022-10-18T14:28:02;3.70;;;1.83;;
18188;SDS011;9219;50.396;8.546;2022-10-18T14:30:54;2.97;;;1.20;;
18188;SDS011;9219;50.396;8.546;2022-10-18T14:33:29;5.03;;;1.40;;
18188;SDS011;9219;50.396;8.546;2022-10-18T14:36:01;2.97;;;1.57;;
18188;SDS011;9219;50.396;8.546;2022-10-18T14:43:52;1.67;;;1.23;;
18188;SDS011;9219;50.396;8.546;2022-10-18T14:46:40;6.70;;;1.80;;
18188;SDS011;9219;50.396;8.546;2022-10-18T14:49:27;6.80;;;1.57;;
18188;SDS011;9219;50.396;8.546;2022-10-18T14:51:57;1.77;;;1.57;;
18188;SDS011;9219;50.396;8.546;2022-10-18T14:54:28;5.37;;;1.50;;
18188;SDS011;9219;50.396;8.546;2022-10-18T14:56:58;2.20;;;1.40;;
18188;SDS011;9219;50.396;8.546;2022-10-18T14:59:28;1.77;;;1.53;;
18188;SDS011;9219;50.396;8.546;2022-10-18T15:02:00;5.87;;;1.67;;
18188;SDS011;9219;50.396;8.546;2022-10-18T15:09:04;4.20;;;1.47;;
18188;SDS011;9219;50.396;8.546;2022-10-18T15:11:33;2.17;;;1.40;;
18188;SDS011;9219;50.396;8.546;2022-10-18T15:14:02;1.80;;;1.40;;
18188;SDS011;9219;50.396;8.546;2022-10-18T15:16:34;2.40;;;1.20;;
18188;SDS011;9219;50.396;8.546;2022-10-18T15:19:05;5.37;;;1.57;;
18188;SDS011;9219;50.396;8.546;2022-10-18T15:21:52;1.50;;;1.40;;
18188;SDS011;9219;50.396;8.546;2022-10-18T15:24:42;1.87;;;1.43;;
18188;SDS011;9219;50.396;8.546;2022-10-18T15:27:12;1.90;;;1.70;;
18188;SDS011;9219;50.396;8.546;2022-10-18T15:35:04;9.20;;;2.00;;
18188;SDS011;9219;50.396;8.546;2022-10-18T15:37:43;3.90;;;1.90;;
18188;SDS011;9219;50.396;8.546;2022-10-18T15:40:24;2.80;;;2.23;;
18188;SDS011;9219;50.396;8.546;2022-10-18T15:43:05;3.27;;;2.00;;
18188;SDS011;9219;50.396;8.546;2022-10-18T15:45:50;3.27;;;1.90;;
18188;SDS011;9219;50.396;8.546;2022-10-18T15:48:24;3.53;;;2.60;;
18188;SDS011;9219;50.396;8.546;2022-10-18T15:50:57;7.10;;;3.00;;
18188;SDS011;9219;50.396;8.546;2022-10-18T15:58:38;3.20;;;2.90;;
18188;SDS011;9219;50.396;8.546;2022-10-18T16:01:14;6.27;;;2.93;;
18188;SDS011;9219;50.396;8.546;2022-10-18T16:03:45;6.30;;;3.13;;
18188;SDS011;9219;50.396;8.546;2022-10-18T16:06:13;4.17;;;2.70;;
18188;SDS011;9219;50.396;8.546;2022-10-18T16:08:46;5.57;;;2.70;;
18188;SDS011;9219;50.396;8.546;2022-10-18T16:11:18;4.60;;;3.07;;
18188;SDS011;9219;50.396;8.546;2022-10-18T16:13:51;3.80;;;2.77;;
18188;SDS011;9219;50.396;8.546;2022-10-18T16:21:36;5.43;;;3.83;;
18188;SDS011;9219;50.396;8.546;2022-10-18T16:24:05;11.07;;;3.67;;
18188;SDS011;9219;50.396;8.546;2022-10-18T16:26:34;8.00;;;3.57;;
18188;SDS011;9219;50.396;8.546;2022-10-18T16:29:05;4.57;;;3.80;;
18188;SDS011;9219;50.396;8.546;2022-10-18T16:31:41;8.43;;;4.60;;
18188;SDS011;9219;50.396;8.546;2022-10-18T16:34:13;6.93;;;4.50;;
18188;SDS011;9219;50.396;8.546;2022-10-18T16:36:43;7.93;;;4.03;;
18188;SDS011;9219;50.396;8.546;2022-10-18T16:44:17;6.90;;;3.50;;
18188;SDS011;9219;50.396;8.546;2022-10-18T16:46:45;9.23;;;3.57;;
18188;SDS011;9219;50.396;8.546;2022-10-18T16:49:22;6.43;;;4.20;;
18188;SDS011;9219;50.396;8.546;2022-10-18T16:51:52;9.27;;;5.03;;
18188;SDS011;9219;50.396;8.546;2022-10-18T16:54:21;9.57;;;5.10;;
18188;SDS011;9219;50.396;8.546;2022-10-18T16:56:50;8.37;;;5.70;;
18188;SDS011;9219;50.396;8.546;2022-10-18T16:59:22;8.27;;;5.63;;
18188;SDS011;9219;50.396;8.546;2022-10-18T17:01:53;8.53;;;5.43;;
18188;SDS011;9219;50.396;8.546;2022-10-18T17:07:34;8.17;;;5.10;;
18188;SDS011;9219;50.396;8.546;2022-10-18T17:10:07;7.67;;;5.47;;
18188;SDS011;9219;50.396;8.546;2022-10-18T17:12:37;9.80;;;5.77;;
18188;SDS011;9219;50.396;8.546;2022-10-18T17:15:07;12.57;;;5.47;;
18188;SDS011;9219;50.396;8.546;2022-10-18T17:17:36;10.90;;;5.57;;
18188;SDS011;9219;50.396;8.546;2022-10-18T17:20:06;11.47;;;5.73;;
18188;SDS011;9219;50.396;8.546;2022-10-18T17:22:37;13.83;;;6.47;;
18188;SDS011;9219;50.396;8.546;2022-10-18T17:25:05;12.03;;;5.67;;
18188;SDS011;9219;50.396;8.546;2022-10-18T17:34:50;16.17;;;7.33;;
18188;SDS011;9219;50.396;8.546;2022-10-18T17:37:17;10.10;;;7.30;;
18188;SDS011;9219;50.396;8.546;2022-10-18T17:39:45;13.60;;;7.73;;
18188;SDS011;9219;50.396;8.546;2022-10-18T17:42:20;8.43;;;6.33;;
18188;SDS011;9219;50.396;8.546;2022-10-18T17:44:49;11.93;;;7.30;;
18188;SDS011;9219;50.396;8.546;2022-10-18T17:47:22;9.33;;;6.90;;
18188;SDS011;9219;50.396;8.546;2022-10-18T17:49:52;12.60;;;8.03;;
18188;SDS011;9219;50.396;8.546;2022-10-18T17:52:20;12.30;;;8.03;;
18188;SDS011;9219;50.396;8.546;2022-10-18T17:54:52;13.00;;;8.40;;
18188;SDS011;9219;50.396;8.546;2022-10-18T18:03:02;15.73;;;8.87;;
18188;SDS011;9219;50.396;8.546;2022-10-18T18:05:43;18.20;;;8.97;;
18188;SDS011;9219;50.396;8.546;2022-10-18T18:08:17;13.63;;;9.97;;
18188;SDS011;9219;50.396;8.546;2022-10-18T18:10:46;18.87;;;9.77;;
18188;SDS011;9219;50.396;8.546;2022-10-18T18:13:23;15.43;;;9.90;;
18188;SDS011;9219;50.396;8.546;2022-10-18T18:15:54;16.53;;;10.67;;
18188;SDS011;9219;50.396;8.546;2022-10-18T18:18:27;16.90;;;8.50;;
18188;SDS011;9219;50.396;8.546;2022-10-18T18:20:57;13.73;;;9.80;;
18188;SDS011;9219;50.396;8.546;2022-10-18T18:23:51;16.77;;;9.30;;
18188;SDS011;9219;50.396;8.546;2022-10-18T18:26:24;16.33;;;10.00;;
18188;SDS011;9219;50.396;8.546;2022-10-18T18:28:55;14.43;;;9.47;;
18188;SDS011;9219;50.396;8.546;2022-10-18T18:31:26;14.57;;;9.17;;
18188;SDS011;9219;50.396;8.546;2022-10-18T18:34:04;19.00;;;10.30;;
18188;SDS011;9219;50.396;8.546;2022-10-18T18:36:33;15.97;;;9.10;;
18188;SDS011;9219;50.396;8.546;2022-10-18T18:39:06;17.40;;;10.17;;
18188;SDS011;9219;50.396;8.546;2022-10-18T18:46:54;17.53;;;10.40;;
18188;SDS011;9219;50.396;8.546;2022-10-18T18:49:29;17.37;;;10.07;;
18188;SDS011;9219;50.396;8.546;2022-10-18T18:54:34;21.03;;;10.73;;
18188;SDS011;9219;50.396;8.546;2022-10-18T18:57:06;21.00;;;11.63;;
18188;SDS011;9219;50.396;8.546;2022-10-18T18:59:36;20.90;;;11.07;;
18188;SDS011;9219;50.396;8.546;2022-10-18T19:02:09;20.87;;;12.60;;
18188;SDS011;9219;50.396;8.546;2022-10-18T19:04:41;17.33;;;10.70;;
18188;SDS011;9219;50.396;8.546;2022-10-18T19:12:20;25.77;;;12.57;;
18188;SDS011;9219;50.396;8.546;2022-10-18T19:14:52;20.03;;;10.93;;
18188;SDS011;9219;50.396;8.546;2022-10-18T19:17:23;27.23;;;14.00;;
18188;SDS011;9219;50.396;8.546;2022-10-18T19:19:53;19.37;;;11.60;;
18188;SDS011;9219;50.396;8.546;2022-10-18T19:22:24;24.97;;;12.40;;
18188;SDS011;9219;50.396;8.546;2022-10-18T19:24:56;17.77;;;11.87;;
18188;SDS011;9219;50.396;8.546;2022-10-18T19:27:27;17.57;;;11.20;;
18188;SDS011;9219;50.396;8.546;2022-10-18T19:32:51;21.23;;;10.93;;
18188;SDS011;9219;50.396;8.546;2022-10-18T19:35:29;20.63;;;11.97;;
18188;SDS011;9219;50.396;8.546;2022-10-18T19:38:01;25.30;;;13.20;;
18188;SDS011;9219;50.396;8.546;2022-10-18T19:40:31;16.03;;;10.27;;
18188;SDS011;9219;50.396;8.546;2022-10-18T19:43:04;18.37;;;10.03;;
18188;SDS011;9219;50.396;8.546;2022-10-18T19:45:38;19.57;;;11.77;;
18188;SDS011;9219;50.396;8.546;2022-10-18T19:48:08;22.47;;;11.47;;
18188;SDS011;9219;50.396;8.546;2022-10-18T19:50:41;20.93;;;11.60;;
18188;SDS011;9219;50.396;8.546;2022-10-18T19:58:29;16.53;;;9.93;;
18188;SDS011;9219;50.396;8.546;2022-10-18T20:00:58;15.67;;;10.03;;
18188;SDS011;9219;50.396;8.546;2022-10-18T20:03:30;27.50;;;11.23;;
18188;SDS011;9219;50.396;8.546;2022-10-18T20:06:00;19.97;;;9.80;;
18188;SDS011;9219;50.396;8.546;2022-10-18T20:08:29;17.47;;;10.57;;
18188;SDS011;9219;50.396;8.546;2022-10-18T20:10:59;19.97;;;10.50;;
18188;SDS011;9219;50.396;8.546;2022-10-18T20:13:27;18.70;;;9.57;;
18188;SDS011;9219;50.396;8.546;2022-10-18T20:20:57;21.13;;;10.67;;
18188;SDS011;9219;50.396;8.546;2022-10-18T20:23:25;14.77;;;9.37;;
18188;SDS011;9219;50.396;8.546;2022-10-18T20:25:55;18.73;;;10.33;;
18188;SDS011;9219;50.396;8.546;2022-10-18T20:28:24;18.40;;;10.70;;
18188;SDS011;9219;50.396;8.546;2022-10-18T20:31:00;18.57;;;10.90;;
18188;SDS011;9219;50.396;8.546;2022-10-18T20:33:29;14.73;;;8.97;;
18188;SDS011;9219;50.396;8.546;2022-10-18T20:36:02;13.20;;;8.50;;
18188;SDS011;9219;50.396;8.546;2022-10-18T20:44:21;14.30;;;9.20;;
18188;SDS011;9219;50.396;8.546;2022-10-18T20:46:51;15.57;;;9.43;;
18188;SDS011;9219;50.396;8.546;2022-10-18T20:49:19;19.13;;;10.13;;
18188;SDS011;9219;50.396;8.546;2022-10-18T20:51:47;17.10;;;10.00;;
18188;SDS011;9219;50.396;8.546;2022-10-18T20:54:14;20.77;;;9.10;;
18188;SDS011;9219;50.396;8.546;2022-10-18T20:56:44;16.60;;;10.07;;
18188;SDS011;9219;50.396;8.546;2022-10-18T20:59:11;14.23;;;9.07;;
18188;SDS011;9219;50.396;8.546;2022-10-18T21:06:46;21.27;;;11.43;;
18188;SDS011;9219;50.396;8.546;2022-10-18T21:09:15;21.63;;;10.87;;